FTTY

Faya Largeau Airport

Chad
METAR FTTY 211500Z 00000KT CAVOK 43/18 Q1007
Observed Flight Rules
Apr-21 @ 15:00 UTC (35 minutes ago) Visual Flight Rules
Visibility Clouds
10,000+ meters
  • Clear skies
Temperatures Readings
Current 43°C / 109°F
Dewpoint 18°C / 64°F
Humidity 23%
Altimeter 29.73" Hg
Pressure 1007 hPa
Elevation 234
METAR FTTY 211500Z 00000KT CAVOK 43/18 Q1007
Observed Flight Rules
Apr-21 @ 15:00 UTC
(35 minutes ago)
VFR
Clouds
  • Clear skies
Temperature Dewpoint
43°C / 109°F 18°C / 64°F
Humidity Altimeter Pressure
23% 29.73" Hg 1007 hPa